createdAt,value
2022-11-07T00:00:17.942Z,0.00
2022-11-07T00:01:17.916Z,0.00
2022-11-07T00:02:17.995Z,0.00
2022-11-07T00:03:18.368Z,0.00
2022-11-07T00:04:17.907Z,0.00
2022-11-07T00:05:17.880Z,0.00
2022-11-07T00:06:17.872Z,0.00
2022-11-07T00:07:17.857Z,0.00
2022-11-07T00:08:17.845Z,0.00
2022-11-07T00:09:17.831Z,0.00
2022-11-07T00:10:17.843Z,0.00
2022-11-07T00:11:17.800Z,0.00
2022-11-07T00:12:17.804Z,0.00
2022-11-07T00:13:17.796Z,0.00
2022-11-07T00:14:17.777Z,0.00
2022-11-07T00:15:17.773Z,0.00
2022-11-07T00:16:17.772Z,0.00
2022-11-07T00:17:17.745Z,0.00
2022-11-07T00:18:17.730Z,0.00
2022-11-07T00:19:17.714Z,0.00
2022-11-07T00:20:17.733Z,0.00
2022-11-07T00:21:17.734Z,0.00
2022-11-07T00:22:17.696Z,0.00
2022-11-07T00:23:17.706Z,0.00
2022-11-07T00:24:17.678Z,0.00
2022-11-07T00:25:17.658Z,0.00
2022-11-07T00:26:17.661Z,0.00
2022-11-07T00:27:17.714Z,0.00
2022-11-07T00:28:17.634Z,0.00
2022-11-07T00:29:17.608Z,0.00
2022-11-07T00:30:17.613Z,0.00
2022-11-07T00:31:17.700Z,0.00
2022-11-07T00:32:17.585Z,0.00
2022-11-07T00:33:17.722Z,0.00
2022-11-07T00:34:17.556Z,0.00
2022-11-07T00:35:17.542Z,0.00
2022-11-07T00:36:17.563Z,0.00
2022-11-07T00:37:17.519Z,0.00
2022-11-07T00:38:17.524Z,0.00
2022-11-07T00:39:17.504Z,0.00
2022-11-07T00:40:17.512Z,0.00
2022-11-07T00:41:17.503Z,0.00
2022-11-07T00:42:17.494Z,0.00
2022-11-07T00:43:17.488Z,0.00
2022-11-07T00:44:17.456Z,0.00
2022-11-07T00:45:17.439Z,0.00
2022-11-07T00:46:17.431Z,0.00
2022-11-07T00:47:17.432Z,0.00
2022-11-07T00:48:17.427Z,0.00
2022-11-07T00:49:17.394Z,0.00
2022-11-07T00:50:17.379Z,0.00
2022-11-07T00:51:17.379Z,0.00
2022-11-07T00:52:17.391Z,0.00
2022-11-07T00:53:17.718Z,0.00
2022-11-07T00:54:17.343Z,0.00
2022-11-07T00:55:17.337Z,0.00
2022-11-07T00:56:17.318Z,0.00
2022-11-07T00:57:17.319Z,0.00
2022-11-07T00:58:17.303Z,0.00
2022-11-07T00:59:17.301Z,0.00
2022-11-07T01:00:17.270Z,0.00
2022-11-07T01:01:17.313Z,0.00
2022-11-07T01:02:17.379Z,0.00
2022-11-07T01:03:17.612Z,0.00
2022-11-07T01:04:17.226Z,0.00
2022-11-07T01:05:17.240Z,0.00
2022-11-07T01:06:17.200Z,0.00
2022-11-07T01:07:17.206Z,0.00
2022-11-07T01:08:17.215Z,0.00
2022-11-07T01:09:17.204Z,0.00
2022-11-07T01:10:17.165Z,0.00
2022-11-07T01:11:17.187Z,0.00
2022-11-07T01:12:17.140Z,0.00
2022-11-07T01:13:17.388Z,0.00
2022-11-07T01:14:17.116Z,0.00
2022-11-07T01:15:17.136Z,0.00
2022-11-07T01:16:17.125Z,0.00
2022-11-07T01:17:17.092Z,0.00
2022-11-07T01:18:17.093Z,0.00
2022-11-07T01:19:17.092Z,0.00
2022-11-07T01:20:17.131Z,0.00
2022-11-07T01:21:17.057Z,0.00
2022-11-07T01:22:17.028Z,0.00
2022-11-07T01:23:17.416Z,0.00
2022-11-07T01:24:17.023Z,0.00
2022-11-07T01:25:17.031Z,0.00
2022-11-07T01:26:16.993Z,0.00
2022-11-07T01:27:16.997Z,0.00
2022-11-07T01:28:16.978Z,0.00
2022-11-07T01:29:16.976Z,0.00
2022-11-07T01:30:16.954Z,0.00
2022-11-07T01:31:16.942Z,0.00
2022-11-07T01:32:16.948Z,0.00
2022-11-07T01:33:17.195Z,0.00
2022-11-07T01:34:16.907Z,0.00
2022-11-07T01:35:16.922Z,0.00
2022-11-07T01:36:16.882Z,0.00
2022-11-07T01:37:16.908Z,0.00
2022-11-07T01:38:16.859Z,0.00
2022-11-07T01:39:16.858Z,0.00
2022-11-07T01:40:16.874Z,0.00
2022-11-07T01:41:16.857Z,0.00
2022-11-07T01:42:16.838Z,0.00
2022-11-07T01:43:17.130Z,0.00
2022-11-07T01:44:16.802Z,0.00
2022-11-07T01:45:16.814Z,0.00
2022-11-07T01:46:16.783Z,0.00
2022-11-07T01:47:16.783Z,0.00
2022-11-07T01:48:16.766Z,0.00
2022-11-07T01:49:16.771Z,0.00
2022-11-07T01:50:16.740Z,0.00
2022-11-07T01:51:16.733Z,0.00
2022-11-07T01:52:16.730Z,0.00
2022-11-07T01:53:17.018Z,0.00
2022-11-07T01:54:16.687Z,0.00
2022-11-07T01:55:16.737Z,0.00
2022-11-07T01:56:16.672Z,0.00
2022-11-07T01:57:16.676Z,0.00
2022-11-07T01:58:16.656Z,0.00
2022-11-07T01:59:16.642Z,0.00
2022-11-07T02:00:16.628Z,0.00
2022-11-07T02:01:16.719Z,0.00
2022-11-07T02:02:16.674Z,0.00
2022-11-07T02:03:17.080Z,0.00
2022-11-07T02:04:16.583Z,0.00
2022-11-07T02:05:16.752Z,0.00
2022-11-07T02:06:16.587Z,0.00
2022-11-07T02:07:16.556Z,0.00
2022-11-07T02:08:16.547Z,0.00
2022-11-07T02:09:16.559Z,0.00
2022-11-07T02:10:16.649Z,0.00
2022-11-07T02:11:16.518Z,0.00
2022-11-07T02:12:16.499Z,0.00
2022-11-07T02:13:16.892Z,0.00
2022-11-07T02:14:16.483Z,0.00
2022-11-07T02:15:16.492Z,0.00
2022-11-07T02:16:16.470Z,0.00
2022-11-07T02:17:16.450Z,0.00
2022-11-07T02:18:16.443Z,0.00
2022-11-07T02:19:16.431Z,0.00
2022-11-07T02:20:16.417Z,0.00
2022-11-07T02:21:16.426Z,0.00
2022-11-07T02:22:16.382Z,0.00
2022-11-07T02:23:16.978Z,0.00
2022-11-07T02:24:16.380Z,0.00
2022-11-07T02:25:16.432Z,0.00
2022-11-07T02:26:16.344Z,0.00
2022-11-07T02:27:16.344Z,0.00
2022-11-07T02:28:16.319Z,0.00
2022-11-07T02:29:16.343Z,0.00
2022-11-07T02:30:16.310Z,0.00
2022-11-07T02:31:16.318Z,0.00
2022-11-07T02:32:16.301Z,0.00
2022-11-07T02:33:16.607Z,0.00
2022-11-07T02:34:16.256Z,0.00
2022-11-07T02:35:16.262Z,0.00
2022-11-07T02:36:16.237Z,0.00
2022-11-07T02:37:16.273Z,0.00
2022-11-07T02:38:16.207Z,0.00
2022-11-07T02:39:16.209Z,0.00
2022-11-07T02:40:16.210Z,0.00
2022-11-07T02:41:16.228Z,0.00
2022-11-07T02:42:16.174Z,0.00
2022-11-07T02:43:16.484Z,0.00
2022-11-07T02:44:16.153Z,0.00
2022-11-07T02:45:16.195Z,0.00
2022-11-07T02:46:16.121Z,0.00
2022-11-07T02:47:16.123Z,0.00
2022-11-07T02:48:16.141Z,0.00
2022-11-07T02:49:16.118Z,0.00
2022-11-07T02:50:16.129Z,0.00
2022-11-07T02:51:16.102Z,0.00
2022-11-07T02:52:16.060Z,0.00
2022-11-07T02:53:16.502Z,0.00
2022-11-07T02:54:16.039Z,0.00
2022-11-07T02:55:16.056Z,0.00
2022-11-07T02:56:16.055Z,0.00
2022-11-07T02:57:16.054Z,0.00
2022-11-07T02:58:15.999Z,0.00
2022-11-07T02:59:16.009Z,0.00
2022-11-07T03:00:15.983Z,0.00
2022-11-07T03:01:22.166Z,0.00
2022-11-07T03:02:16.124Z,0.00
2022-11-07T03:03:16.461Z,0.00
2022-11-07T03:04:15.953Z,0.00
2022-11-07T03:05:16.266Z,0.00
2022-11-07T03:06:15.929Z,0.00
2022-11-07T03:07:15.914Z,0.00
2022-11-07T03:08:15.890Z,0.00
2022-11-07T03:09:15.892Z,0.00
2022-11-07T03:10:15.886Z,0.00
2022-11-07T03:11:15.947Z,0.00
2022-11-07T03:12:15.838Z,0.00
2022-11-07T03:13:16.383Z,0.00
2022-11-07T03:14:15.838Z,0.00
2022-11-07T03:15:15.824Z,0.00
2022-11-07T03:16:15.816Z,0.00
2022-11-07T03:17:15.796Z,0.00
2022-11-07T03:18:15.777Z,0.00
2022-11-07T03:19:15.805Z,0.00
2022-11-07T03:20:15.771Z,0.00
2022-11-07T03:21:15.767Z,0.00
2022-11-07T03:22:15.744Z,0.00
2022-11-07T03:23:16.178Z,0.00
2022-11-07T03:24:15.726Z,0.00
2022-11-07T03:25:15.713Z,0.00
2022-11-07T03:26:15.708Z,0.00
2022-11-07T03:27:15.697Z,0.00
2022-11-07T03:28:15.667Z,0.00
2022-11-07T03:29:15.667Z,0.00
2022-11-07T03:30:15.676Z,0.00
2022-11-07T03:31:15.687Z,0.00
2022-11-07T03:32:15.640Z,0.00
2022-11-07T03:33:15.931Z,0.00
2022-11-07T03:34:15.605Z,0.00
2022-11-07T03:35:15.722Z,0.00
2022-11-07T03:36:15.590Z,0.00
2022-11-07T03:37:15.595Z,0.00
2022-11-07T03:38:15.574Z,0.00
2022-11-07T03:39:15.562Z,0.00
2022-11-07T03:40:15.546Z,0.00
2022-11-07T03:41:15.559Z,0.00
2022-11-07T03:42:15.541Z,0.00
2022-11-07T03:43:15.873Z,0.00
2022-11-07T03:44:15.503Z,0.00
2022-11-07T03:45:15.508Z,0.00
2022-11-07T03:46:15.498Z,0.00
2022-11-07T03:47:15.514Z,0.00
2022-11-07T03:48:15.485Z,0.00
2022-11-07T03:49:15.480Z,0.00
2022-11-07T03:50:15.472Z,0.00
2022-11-07T03:51:15.470Z,0.00
2022-11-07T03:52:15.431Z,0.00
2022-11-07T03:53:18.291Z,0.00
2022-11-07T03:54:15.410Z,0.00
2022-11-07T03:55:15.405Z,0.00
2022-11-07T03:56:15.371Z,0.00
2022-11-07T03:57:15.381Z,0.00
2022-11-07T03:58:15.592Z,0.00
2022-11-07T03:59:15.374Z,0.00
2022-11-07T04:00:15.325Z,0.00
2022-11-07T04:01:15.510Z,0.00
2022-11-07T04:02:15.450Z,0.00
2022-11-07T04:03:15.611Z,0.00
2022-11-07T04:04:15.276Z,0.00
2022-11-07T04:05:15.273Z,0.00
2022-11-07T04:06:15.266Z,0.00
2022-11-07T04:07:15.257Z,0.00
2022-11-07T04:08:15.257Z,0.00
2022-11-07T04:09:15.374Z,0.00
2022-11-07T04:10:15.221Z,0.00
2022-11-07T04:11:15.232Z,0.00
2022-11-07T04:12:15.235Z,0.00
2022-11-07T04:13:15.477Z,0.00
2022-11-07T04:14:15.182Z,0.00
2022-11-07T04:15:15.175Z,0.00
2022-11-07T04:16:17.651Z,0.00
2022-11-07T04:17:15.157Z,0.00
2022-11-07T04:18:15.168Z,0.00
2022-11-07T04:19:15.141Z,0.00
2022-11-07T04:20:15.103Z,0.00
2022-11-07T04:21:15.109Z,0.00
2022-11-07T04:22:15.104Z,0.00
2022-11-07T04:23:15.574Z,0.00
2022-11-07T04:24:15.066Z,0.00
2022-11-07T04:25:15.073Z,0.00
2022-11-07T04:26:15.045Z,0.00
2022-11-07T04:27:15.063Z,0.00
2022-11-07T04:28:15.023Z,0.00
2022-11-07T04:29:15.042Z,0.00
2022-11-07T04:30:15.020Z,0.00
2022-11-07T04:31:15.001Z,0.00
2022-11-07T04:32:14.983Z,0.00
2022-11-07T04:33:15.391Z,0.00
2022-11-07T04:34:14.961Z,0.00
2022-11-07T04:35:14.980Z,0.00
2022-11-07T04:36:14.939Z,0.00
2022-11-07T04:37:14.934Z,0.00
2022-11-07T04:38:14.935Z,0.00
2022-11-07T04:39:14.905Z,0.00
2022-11-07T04:40:14.891Z,0.00
2022-11-07T04:41:14.894Z,0.00
2022-11-07T04:42:14.873Z,0.00
2022-11-07T04:43:15.157Z,0.00
2022-11-07T04:44:14.853Z,0.00
2022-11-07T04:45:14.888Z,0.00
2022-11-07T04:46:14.841Z,0.00
2022-11-07T04:47:14.831Z,0.00
2022-11-07T04:48:14.834Z,0.00
2022-11-07T04:49:14.825Z,0.00
2022-11-07T04:50:14.863Z,0.00
2022-11-07T04:51:14.792Z,0.00
2022-11-07T04:52:14.756Z,0.00
2022-11-07T04:53:15.091Z,0.00
2022-11-07T04:54:14.771Z,0.00
2022-11-07T04:55:14.760Z,0.00
2022-11-07T04:56:14.729Z,0.00
2022-11-07T04:57:14.735Z,0.00
2022-11-07T04:58:14.702Z,0.00
2022-11-07T04:59:14.715Z,0.00
2022-11-07T05:00:14.696Z,0.00
2022-11-07T05:01:14.715Z,0.00
2022-11-07T05:02:14.803Z,0.00
2022-11-07T05:03:15.057Z,0.00
2022-11-07T05:04:14.635Z,0.00
2022-11-07T05:05:14.621Z,0.00
2022-11-07T05:06:14.658Z,0.00
2022-11-07T05:07:14.616Z,0.00
2022-11-07T05:08:14.611Z,0.00
2022-11-07T05:09:14.592Z,0.00
2022-11-07T05:10:14.574Z,0.00
2022-11-07T05:11:14.562Z,0.00
2022-11-07T05:12:14.579Z,0.00
2022-11-07T05:13:14.673Z,0.00
2022-11-07T05:14:14.535Z,0.00
2022-11-07T05:15:14.520Z,0.00
2022-11-07T05:16:14.528Z,0.00
2022-11-07T05:17:14.502Z,0.00
2022-11-07T05:18:14.505Z,0.00
2022-11-07T05:19:14.481Z,0.00
2022-11-07T05:20:14.472Z,0.00
2022-11-07T05:21:14.459Z,0.00
2022-11-07T05:22:14.454Z,0.00
2022-11-07T05:23:14.891Z,0.00
2022-11-07T05:24:14.439Z,0.00
2022-11-07T05:25:14.415Z,0.00
2022-11-07T05:26:14.407Z,0.00
2022-11-07T05:27:14.382Z,0.00
2022-11-07T05:28:14.383Z,0.00
2022-11-07T05:29:14.383Z,0.00
2022-11-07T05:30:14.362Z,0.00
2022-11-07T05:31:14.340Z,0.00
2022-11-07T05:32:14.350Z,0.00
2022-11-07T05:33:14.734Z,0.00
2022-11-07T05:34:14.772Z,0.00
2022-11-07T05:35:14.303Z,0.00
2022-11-07T05:36:14.298Z,0.00
2022-11-07T05:37:14.363Z,0.00
2022-11-07T05:38:14.285Z,0.00
2022-11-07T05:39:14.256Z,0.00
2022-11-07T05:40:14.263Z,0.00
2022-11-07T05:41:14.254Z,0.00
2022-11-07T05:42:14.240Z,0.00
2022-11-07T05:43:14.591Z,0.00
2022-11-07T05:44:14.208Z,0.00
2022-11-07T05:45:14.188Z,0.00
2022-11-07T05:46:14.191Z,0.00
2022-11-07T05:47:14.185Z,0.00
2022-11-07T05:48:14.233Z,0.00
2022-11-07T05:49:14.175Z,0.00
2022-11-07T05:50:14.156Z,0.00
2022-11-07T05:51:14.123Z,0.00
2022-11-07T05:52:14.126Z,0.00
2022-11-07T05:53:14.492Z,0.00
2022-11-07T05:54:14.109Z,0.00
2022-11-07T05:55:14.087Z,0.00
2022-11-07T05:56:14.087Z,0.00
2022-11-07T05:57:14.065Z,0.00
2022-11-07T05:58:14.085Z,0.00
2022-11-07T05:59:14.045Z,0.00
2022-11-07T06:00:14.058Z,0.00
2022-11-07T06:01:14.017Z,0.00
2022-11-07T06:02:14.111Z,0.00
2022-11-07T06:03:14.552Z,0.00
2022-11-07T06:04:14.007Z,0.00
2022-11-07T06:05:13.967Z,0.00
2022-11-07T06:06:13.981Z,0.00
2022-11-07T06:07:13.955Z,0.00
2022-11-07T06:08:13.972Z,0.00
2022-11-07T06:09:13.956Z,0.00
2022-11-07T06:10:13.931Z,0.00
2022-11-07T06:11:13.908Z,0.00
2022-11-07T06:12:13.870Z,0.00
2022-11-07T06:13:14.235Z,0.00
2022-11-07T06:14:13.832Z,0.00
2022-11-07T06:15:13.836Z,0.00
2022-11-07T06:16:13.836Z,0.00
2022-11-07T06:17:13.836Z,0.00
2022-11-07T06:18:13.798Z,0.00
2022-11-07T06:19:13.790Z,0.00
2022-11-07T06:20:13.803Z,0.00
2022-11-07T06:21:13.758Z,0.00
2022-11-07T06:22:13.755Z,0.00
2022-11-07T06:23:14.130Z,0.00
2022-11-07T06:24:15.404Z,0.00
2022-11-07T06:25:13.718Z,0.00
2022-11-07T06:26:13.712Z,0.00
2022-11-07T06:27:13.688Z,0.00
2022-11-07T06:28:13.687Z,0.00
2022-11-07T06:29:13.673Z,0.00
2022-11-07T06:30:13.674Z,0.00
2022-11-07T06:31:13.691Z,0.00
2022-11-07T06:32:13.644Z,0.00
2022-11-07T06:33:14.096Z,0.00
2022-11-07T06:34:13.624Z,0.00
2022-11-07T06:35:13.625Z,0.00
2022-11-07T06:36:13.617Z,0.00
2022-11-07T06:37:13.576Z,0.00
2022-11-07T06:38:13.580Z,0.00
2022-11-07T06:39:13.558Z,0.00
2022-11-07T06:40:13.576Z,0.00
2022-11-07T06:41:13.565Z,0.00
2022-11-07T06:42:13.545Z,0.00
2022-11-07T06:43:13.941Z,0.00
2022-11-07T06:44:13.520Z,0.00
2022-11-07T06:45:13.493Z,0.00
2022-11-07T06:46:13.511Z,0.00
2022-11-07T06:47:13.470Z,0.00
2022-11-07T06:48:13.529Z,0.00
2022-11-07T06:49:13.451Z,0.00
2022-11-07T06:50:13.461Z,0.00
2022-11-07T06:51:13.452Z,0.00
2022-11-07T06:52:13.450Z,0.00
2022-11-07T06:53:14.118Z,0.00
2022-11-07T06:54:13.417Z,0.00
2022-11-07T06:55:13.387Z,0.00
2022-11-07T06:56:13.550Z,0.00
2022-11-07T06:57:13.447Z,0.00
2022-11-07T06:58:13.371Z,0.00
2022-11-07T06:59:13.383Z,5.62
2022-11-07T07:00:13.345Z,5.62
2022-11-07T07:01:13.524Z,5.62
2022-11-07T07:02:21.683Z,5.62
2022-11-07T07:03:13.579Z,5.62
2022-11-07T07:04:13.330Z,5.62
2022-11-07T07:05:15.989Z,5.62
2022-11-07T07:06:13.334Z,5.62
2022-11-07T07:07:13.267Z,5.62
2022-11-07T07:08:13.258Z,5.62
2022-11-07T07:09:13.237Z,5.62
2022-11-07T07:10:13.384Z,5.62
2022-11-07T07:11:13.228Z,5.62
2022-11-07T07:12:13.243Z,5.62
2022-11-07T07:13:13.750Z,5.62
2022-11-07T07:14:13.209Z,5.62
2022-11-07T07:15:13.170Z,5.62
2022-11-07T07:16:13.212Z,5.62
2022-11-07T07:17:13.151Z,5.62
2022-11-07T07:18:13.153Z,5.62
2022-11-07T07:19:13.133Z,5.62
2022-11-07T07:20:13.128Z,5.62
2022-11-07T07:21:13.119Z,5.62
2022-11-07T07:22:13.149Z,5.62
2022-11-07T07:23:13.083Z,5.62
2022-11-07T07:24:13.117Z,5.62
2022-11-07T07:25:13.068Z,5.62
2022-11-07T07:26:13.060Z,5.62
2022-11-07T07:27:13.121Z,5.62
2022-11-07T07:28:13.103Z,5.62
2022-11-07T07:29:13.038Z,5.62
2022-11-07T07:30:13.064Z,11.25
2022-11-07T07:31:13.041Z,11.25
2022-11-07T07:32:13.084Z,5.62
2022-11-07T07:33:13.383Z,5.62
2022-11-07T07:34:13.041Z,5.62
2022-11-07T07:35:12.954Z,5.62
2022-11-07T07:36:17.789Z,5.62
2022-11-07T07:37:12.954Z,5.62
2022-11-07T07:38:12.953Z,5.62
2022-11-07T07:39:12.907Z,5.62
2022-11-07T07:40:12.921Z,5.62
2022-11-07T07:41:12.892Z,5.62
2022-11-07T07:42:12.903Z,11.25
2022-11-07T07:43:13.136Z,11.25
2022-11-07T07:44:13.035Z,11.25
2022-11-07T07:45:12.911Z,11.25
2022-11-07T07:46:12.847Z,11.25
2022-11-07T07:47:12.817Z,11.25
2022-11-07T07:48:12.867Z,11.25
2022-11-07T07:49:12.802Z,11.25
2022-11-07T07:50:12.809Z,11.25
2022-11-07T07:51:12.778Z,11.25
2022-11-07T07:52:12.803Z,16.88
2022-11-07T07:53:12.792Z,16.88
2022-11-07T07:54:12.766Z,16.88
2022-11-07T07:55:12.736Z,16.88
2022-11-07T07:56:12.770Z,16.88
2022-11-07T07:57:12.749Z,16.88
2022-11-07T07:58:12.957Z,16.88
2022-11-07T07:59:12.714Z,16.88
2022-11-07T08:00:12.779Z,22.50
2022-11-07T08:01:12.713Z,22.50
2022-11-07T08:02:12.753Z,22.50
2022-11-07T08:03:12.755Z,16.88
2022-11-07T08:04:12.679Z,16.88
2022-11-07T08:05:12.671Z,16.88
2022-11-07T08:06:12.685Z,11.25
2022-11-07T08:07:12.614Z,11.25
2022-11-07T08:08:12.660Z,16.88
2022-11-07T08:09:12.589Z,16.88
2022-11-07T08:10:39.604Z,11.25
2022-11-07T08:11:12.566Z,11.25
2022-11-07T08:12:12.566Z,11.25
2022-11-07T08:13:12.568Z,11.25
2022-11-07T08:14:12.535Z,11.25
2022-11-07T08:15:12.521Z,11.25
2022-11-07T08:16:12.519Z,11.25
2022-11-07T08:17:12.506Z,11.25
2022-11-07T08:18:12.515Z,11.25
2022-11-07T08:19:12.494Z,11.25
2022-11-07T08:20:12.475Z,11.25
2022-11-07T08:21:12.474Z,11.25
2022-11-07T08:22:12.463Z,16.88
2022-11-07T08:23:16.516Z,11.25
2022-11-07T08:24:12.501Z,11.25
2022-11-07T08:25:12.424Z,16.88
2022-11-07T08:26:12.406Z,16.88
2022-11-07T08:27:12.397Z,16.88
2022-11-07T08:28:12.390Z,16.88
2022-11-07T08:29:12.450Z,16.88
2022-11-07T08:30:17.588Z,16.88
2022-11-07T08:31:12.359Z,16.88
2022-11-07T08:32:12.353Z,16.88
2022-11-07T08:33:12.437Z,22.50
2022-11-07T08:34:12.402Z,22.50
2022-11-07T08:35:12.309Z,22.50
2022-11-07T08:36:12.307Z,28.12
2022-11-07T08:37:12.303Z,28.12
2022-11-07T08:38:12.319Z,33.75
2022-11-07T08:39:12.269Z,28.12
2022-11-07T08:40:12.299Z,22.50
2022-11-07T08:41:12.255Z,22.50
2022-11-07T08:42:12.233Z,22.50
2022-11-07T08:43:12.227Z,16.88
2022-11-07T08:44:12.235Z,16.88
2022-11-07T08:45:12.234Z,16.88
2022-11-07T08:46:12.223Z,16.88
2022-11-07T08:47:12.171Z,16.88
2022-11-07T08:48:12.201Z,11.25
2022-11-07T08:49:12.216Z,11.25
2022-11-07T08:50:12.182Z,11.25
2022-11-07T08:51:12.204Z,11.25
2022-11-07T08:52:12.142Z,11.25
2022-11-07T08:53:12.147Z,11.25
2022-11-07T08:54:12.172Z,11.25
2022-11-07T08:55:12.171Z,5.62
2022-11-07T08:56:12.811Z,5.62
2022-11-07T08:57:12.098Z,5.62
2022-11-07T08:58:12.132Z,5.62
2022-11-07T08:59:12.063Z,11.25
2022-11-07T09:00:12.153Z,11.25
2022-11-07T09:01:13.143Z,11.25
2022-11-07T09:04:12.252Z,5.62
2022-11-07T09:05:12.001Z,11.25
2022-11-07T09:06:12.050Z,11.25
2022-11-07T09:07:12.171Z,11.25
2022-11-07T09:08:11.995Z,11.25
2022-11-07T09:09:16.459Z,16.88
2022-11-07T09:10:12.037Z,16.88
2022-11-07T09:11:11.971Z,22.50
2022-11-07T09:12:11.968Z,28.12
2022-11-07T09:13:12.076Z,28.12
2022-11-07T09:14:11.938Z,33.75
2022-11-07T09:15:11.912Z,45.00
2022-11-07T09:16:11.873Z,45.00
2022-11-07T09:17:11.857Z,39.38
2022-11-07T09:18:11.879Z,39.38
2022-11-07T09:19:11.833Z,39.38
2022-11-07T09:20:11.837Z,45.00
2022-11-07T09:21:11.935Z,45.00
2022-11-07T09:22:12.154Z,45.00
2022-11-07T09:23:11.947Z,45.00
2022-11-07T09:24:11.793Z,39.38
2022-11-07T09:25:11.773Z,45.00
2022-11-07T09:26:11.800Z,45.00
2022-11-07T09:27:11.914Z,39.38
2022-11-07T09:28:11.791Z,45.00
2022-11-07T09:29:11.947Z,39.38
2022-11-07T09:30:11.794Z,39.38
2022-11-07T09:31:11.998Z,39.38
2022-11-07T09:32:38.188Z,39.38
2022-11-07T09:33:11.795Z,33.75
2022-11-07T09:34:11.818Z,28.12
2022-11-07T09:35:11.734Z,22.50
2022-11-07T09:36:11.775Z,28.12
2022-11-07T09:37:11.796Z,28.12
2022-11-07T09:38:11.654Z,28.12
2022-11-07T09:39:11.667Z,33.75
2022-11-07T09:40:11.681Z,39.38
2022-11-07T09:41:11.617Z,39.38
2022-11-07T09:42:11.625Z,39.38
2022-11-07T09:43:11.610Z,33.75
2022-11-07T09:44:11.679Z,33.75
2022-11-07T09:45:11.592Z,33.75
2022-11-07T09:46:11.558Z,33.75
2022-11-07T09:47:11.580Z,33.75
2022-11-07T09:48:11.518Z,33.75
2022-11-07T09:49:11.687Z,39.38
2022-11-07T09:50:11.604Z,39.38
2022-11-07T09:51:11.610Z,39.38
2022-11-07T09:52:11.541Z,39.38
2022-11-07T09:53:11.528Z,39.38
2022-11-07T09:54:11.534Z,33.75
2022-11-07T09:55:11.524Z,33.75
2022-11-07T09:56:11.502Z,28.12
2022-11-07T09:57:14.268Z,33.75
2022-11-07T09:58:11.484Z,33.75
2022-11-07T09:59:14.408Z,33.75
2022-11-07T10:00:11.421Z,39.38
2022-11-07T10:01:11.530Z,39.38
2022-11-07T10:02:11.454Z,45.00
2022-11-07T10:03:11.411Z,50.62
2022-11-07T10:04:24.589Z,56.25
2022-11-07T10:05:11.432Z,61.88
2022-11-07T10:06:11.352Z,61.88
2022-11-07T10:07:11.375Z,73.12
2022-11-07T10:08:11.346Z,90.00
2022-11-07T10:09:11.320Z,61.88
2022-11-07T10:10:11.297Z,67.50
2022-11-07T10:11:11.300Z,61.88
2022-11-07T10:12:11.280Z,67.50
2022-11-07T10:13:11.362Z,56.25
2022-11-07T10:14:11.280Z,50.62
2022-11-07T10:15:11.286Z,67.50
2022-11-07T10:16:11.271Z,78.75
2022-11-07T10:17:11.248Z,73.12
2022-11-07T10:18:11.223Z,45.00
2022-11-07T10:19:11.218Z,45.00
2022-11-07T10:20:11.187Z,50.62
2022-11-07T10:21:36.500Z,50.62
2022-11-07T10:22:11.177Z,56.25
2022-11-07T10:23:11.298Z,67.50
2022-11-07T10:24:11.325Z,56.25
2022-11-07T10:25:11.192Z,56.25
2022-11-07T10:26:11.269Z,61.88
2022-11-07T10:27:11.132Z,84.38
2022-11-07T10:28:11.109Z,129.38
2022-11-07T10:29:11.207Z,140.62
2022-11-07T10:30:11.567Z,84.38
2022-11-07T10:31:11.445Z,135.00
2022-11-07T10:32:11.279Z,112.50
2022-11-07T10:33:11.047Z,112.50
2022-11-07T10:34:11.104Z,78.75
2022-11-07T10:35:11.107Z,61.88
2022-11-07T10:36:11.064Z,61.88
2022-11-07T10:37:11.027Z,56.25
2022-11-07T10:38:11.026Z,73.12
2022-11-07T10:39:11.256Z,61.88
2022-11-07T10:40:12.016Z,73.12
2022-11-07T10:41:10.965Z,236.25
2022-11-07T10:42:11.009Z,50.62
2022-11-07T10:43:10.969Z,50.62
2022-11-07T10:44:11.044Z,50.62
2022-11-07T10:45:11.002Z,50.62
2022-11-07T10:46:10.910Z,45.00
2022-11-07T10:47:10.994Z,50.62
2022-11-07T10:48:11.007Z,61.88
2022-11-07T10:49:10.949Z,73.12
2022-11-07T10:50:10.894Z,50.62
2022-11-07T10:51:10.860Z,50.62
2022-11-07T10:52:10.909Z,50.62
2022-11-07T10:53:10.891Z,101.25
2022-11-07T10:54:10.829Z,50.62
2022-11-07T10:55:10.878Z,45.00
2022-11-07T10:56:10.845Z,39.38
2022-11-07T10:57:10.809Z,45.00
2022-11-07T10:58:10.799Z,61.88
2022-11-07T10:59:10.897Z,90.00
2022-11-07T11:00:10.888Z,90.00
2022-11-07T11:01:10.794Z,45.00
2022-11-07T11:02:10.774Z,39.38
2022-11-07T11:03:10.734Z,33.75
2022-11-07T11:04:10.861Z,39.38
2022-11-07T11:05:10.707Z,33.75
2022-11-07T11:06:10.757Z,39.38
2022-11-07T11:07:10.705Z,50.62
2022-11-07T11:08:10.679Z,50.62
2022-11-07T11:09:10.693Z,45.00
2022-11-07T11:10:10.726Z,50.62
2022-11-07T11:11:10.700Z,50.62
2022-11-07T11:12:10.723Z,50.62
2022-11-07T11:13:10.629Z,50.62
2022-11-07T11:14:10.661Z,45.00
2022-11-07T11:15:10.619Z,45.00
2022-11-07T11:16:10.606Z,50.62
2022-11-07T11:17:10.646Z,45.00
2022-11-07T11:18:10.632Z,45.00
2022-11-07T11:19:10.569Z,39.38
2022-11-07T11:20:10.614Z,28.12
2022-11-07T11:21:10.534Z,22.50
2022-11-07T11:22:10.595Z,28.12
2022-11-07T11:23:10.530Z,33.75
2022-11-07T11:24:10.520Z,39.38
2022-11-07T11:25:10.523Z,39.38
2022-11-07T11:26:10.602Z,45.00
2022-11-07T11:27:10.480Z,50.62
2022-11-07T11:28:10.457Z,45.00
2022-11-07T11:29:10.463Z,45.00
2022-11-07T11:30:10.459Z,45.00
2022-11-07T11:31:10.487Z,45.00
2022-11-07T11:32:10.449Z,50.62
2022-11-07T11:33:10.413Z,50.62
2022-11-07T11:34:10.422Z,50.62
2022-11-07T11:35:10.490Z,50.62
2022-11-07T11:36:10.533Z,39.38
2022-11-07T11:37:10.391Z,33.75
2022-11-07T11:38:10.366Z,33.75
2022-11-07T11:39:10.362Z,39.38
2022-11-07T11:40:10.461Z,33.75
2022-11-07T11:41:11.228Z,28.12
2022-11-07T11:42:10.348Z,22.50
2022-11-07T11:43:10.309Z,28.12
2022-11-07T11:44:10.297Z,39.38
2022-11-07T11:45:10.284Z,33.75
2022-11-07T11:46:10.265Z,28.12
2022-11-07T11:47:10.312Z,28.12
2022-11-07T11:48:10.253Z,22.50
2022-11-07T11:49:10.269Z,22.50
2022-11-07T11:50:10.305Z,22.50
2022-11-07T11:51:10.261Z,22.50
2022-11-07T11:52:10.200Z,16.88
2022-11-07T11:53:10.286Z,16.88
2022-11-07T11:54:10.186Z,16.88
2022-11-07T11:55:10.185Z,16.88
2022-11-07T11:56:10.156Z,16.88
2022-11-07T11:57:10.160Z,22.50
2022-11-07T11:58:10.166Z,22.50
2022-11-07T11:59:10.152Z,16.88
2022-11-07T12:00:10.125Z,16.88
2022-11-07T12:01:10.172Z,16.88
2022-11-07T12:02:10.139Z,22.50
2022-11-07T12:03:10.123Z,22.50
2022-11-07T12:04:10.062Z,16.88
2022-11-07T12:05:10.073Z,22.50
2022-11-07T12:06:10.091Z,16.88
2022-11-07T12:07:10.044Z,16.88
2022-11-07T12:08:10.043Z,16.88
2022-11-07T12:09:15.339Z,22.50
2022-11-07T12:10:10.036Z,28.12
2022-11-07T12:11:10.014Z,39.38
2022-11-07T12:12:09.986Z,45.00
2022-11-07T12:13:10.006Z,50.62
2022-11-07T12:14:10.016Z,50.62
2022-11-07T12:15:09.996Z,50.62
2022-11-07T12:16:10.015Z,39.38
2022-11-07T12:17:09.961Z,33.75
2022-11-07T12:18:09.920Z,28.12
2022-11-07T12:19:09.955Z,28.12
2022-11-07T12:20:09.898Z,33.75
2022-11-07T12:21:09.885Z,33.75
2022-11-07T12:22:09.890Z,28.12
2022-11-07T12:23:09.872Z,22.50
2022-11-07T12:24:09.883Z,22.50
2022-11-07T12:25:09.854Z,28.12
2022-11-07T12:26:09.834Z,22.50
2022-11-07T12:27:09.853Z,22.50
2022-11-07T12:28:09.822Z,22.50
2022-11-07T12:29:09.821Z,22.50
2022-11-07T12:30:09.818Z,22.50
2022-11-07T12:31:09.791Z,22.50
2022-11-07T12:32:09.776Z,28.12
2022-11-07T12:33:09.766Z,28.12
2022-11-07T12:34:09.780Z,28.12
2022-11-07T12:35:09.750Z,28.12
2022-11-07T12:36:09.751Z,22.50
2022-11-07T12:37:09.735Z,28.12
2022-11-07T12:38:09.714Z,28.12
2022-11-07T12:39:09.723Z,28.12
2022-11-07T12:40:09.696Z,28.12
2022-11-07T12:41:09.702Z,28.12
2022-11-07T12:42:09.766Z,22.50
2022-11-07T12:43:09.754Z,22.50
2022-11-07T12:44:09.728Z,16.88
2022-11-07T12:45:09.685Z,16.88
2022-11-07T12:46:10.043Z,16.88
2022-11-07T12:47:09.874Z,22.50
2022-11-07T12:48:13.302Z,28.12
2022-11-07T12:49:09.933Z,28.12
2022-11-07T12:50:09.606Z,28.12
2022-11-07T12:51:09.622Z,33.75
2022-11-07T12:52:09.594Z,33.75
2022-11-07T12:53:09.601Z,33.75
2022-11-07T12:54:15.289Z,28.12
2022-11-07T12:55:09.603Z,28.12
2022-11-07T12:56:09.750Z,22.50
2022-11-07T12:57:09.588Z,22.50
2022-11-07T12:58:09.564Z,28.12
2022-11-07T12:59:09.537Z,28.12
2022-11-07T13:00:09.483Z,28.12
2022-11-07T13:01:09.512Z,22.50
2022-11-07T13:02:09.786Z,16.88
2022-11-07T13:03:09.471Z,16.88
2022-11-07T13:04:09.470Z,16.88
2022-11-07T13:05:09.453Z,22.50
2022-11-07T13:06:09.496Z,16.88
2022-11-07T13:07:09.516Z,16.88
2022-11-07T13:08:09.496Z,11.25
2022-11-07T13:09:09.424Z,11.25